Time;durP1;ratioP1;P1;durP2;ratioP2;P2;SDS_P1;SDS_P2;PMS_P1;PMS_P2;Temp;Humidity;BMP_temperature;BMP_pressure;BME280_temperature;BME280_humidity;BME280_pressure;Samples;Min_cycle;Max_cycle;Signal;HPM_P1;HPM_P2
2022/09/09 00:00:18;;;;;;;;;0.75;0.75;;;;;20.75;74.42;156293.75;4977193;28;45289;-70
2022/09/09 00:03:06;;;;;;;;;0.50;0.00;;;;;20.80;73.77;156307.00;4966922;28;45445;-70
2022/09/09 00:05:59;;;;;;;;;2.00;0.25;;;;;20.87;73.09;156324.25;4999878;27;45445;-70
2022/09/09 00:08:49;;;;;;;;;0.67;0.00;;;;;20.90;72.00;156332.19;4983615;28;47675;-70
2022/09/09 00:11:23;;;;;;;;;0.00;0.00;;;;;20.90;71.70;156330.88;4969467;28;45522;-70
2022/09/09 00:13:53;;;;;;;;;1.00;1.00;;;;;20.92;71.61;156336.19;4969260;28;45496;-71
2022/09/09 00:16:30;;;;;;;;;0.00;0.00;;;;;20.86;71.22;156321.56;4985232;28;45667;-71
2022/09/09 00:19:17;;;;;;;;;0.00;0.00;;;;;20.89;72.24;156328.25;4984557;28;46338;-70
2022/09/09 00:22:14;;;;;;;;;3.67;1.67;;;;;20.94;72.07;156342.81;4976006;28;45474;-70
2022/09/09 00:24:42;;;;;;;;;0.50;0.50;;;;;20.90;71.90;156332.19;4971316;28;45443;-70
2022/09/09 00:27:18;;;;;;;;;2.00;2.00;;;;;20.79;71.93;156304.38;4989928;28;45367;-71
2022/09/09 00:29:54;;;;;;;;;1.00;1.00;;;;;20.85;71.60;156320.25;4995607;28;48556;-70
2022/09/09 00:32:20;;;;;;;;;0.00;0.00;;;;;20.81;71.75;156308.31;4989435;28;45490;-70
2022/09/09 00:34:53;;;;;;;;;2.00;0.50;;;;;20.77;71.92;156297.75;4993561;27;45366;-70
2022/09/09 00:37:22;;;;;;;;;1.00;0.33;;;;;20.79;71.16;156303.00;4995492;28;45379;-70
2022/09/09 00:39:49;;;;;;;;;1.00;0.50;;;;;20.87;71.15;156324.25;4992923;27;45928;-70
2022/09/09 00:42:26;;;;;;;;;0.00;0.00;;;;;20.81;71.75;156308.31;5008929;27;45531;-70
2022/09/09 00:45:29;;;;;;;;;2.50;1.00;;;;;20.76;71.99;156296.38;4991116;27;45508;-70
2022/09/09 00:47:56;;;;;;;;;1.00;1.00;;;;;20.65;71.73;156268.59;5000105;27;45310;-71
2022/09/09 00:50:49;;;;;;;;;1.00;1.00;;;;;20.75;71.84;156292.44;4999662;27;46412;-70
2022/09/09 00:53:42;;;;;;;;;3.00;0.00;;;;;20.78;72.21;156301.69;4981249;28;45865;-71
2022/09/09 00:56:14;;;;;;;;;1.67;1.00;;;;;20.71;71.60;156281.81;5002338;27;45463;-71
2022/09/09 00:58:43;;;;;;;;;0.00;0.00;;;;;20.74;71.56;156291.06;5003175;27;45416;-71
2022/09/09 01:01:13;;;;;;;;;3.67;2.00;;;;;20.73;71.98;156288.44;4975337;28;48404;-71
2022/09/09 01:03:55;;;;;;;;;2.00;0.33;;;;;20.64;71.97;156265.91;4990601;27;45289;-71
2022/09/09 01:06:31;;;;;;;;;0.33;0.33;;;;;20.65;71.67;156268.59;5007989;27;45546;-70
2022/09/09 01:09:21;;;;;;;;;1.00;1.00;;;;;20.65;72.16;156268.59;5003829;27;45291;-70
2022/09/09 01:12:04;;;;;;;;;0.00;0.00;;;;;20.63;72.65;156263.28;4997726;27;46104;-71
2022/09/09 01:14:36;;;;;;;;;0.00;0.00;;;;;20.66;71.73;156269.91;4999241;27;45386;-70
2022/09/09 01:17:28;;;;;;;;;0.75;0.50;;;;;20.66;72.12;156269.91;4992564;28;45432;-71
2022/09/09 01:20:17;;;;;;;;;0.00;0.00;;;;;20.66;71.76;156271.22;5034188;28;45406;-71
2022/09/09 01:23:03;;;;;;;;;2.00;1.00;;;;;20.69;71.90;156276.50;5017934;28;46346;-71
2022/09/09 01:25:43;;;;;;;;;2.00;0.00;;;;;20.66;71.66;156269.91;5047535;28;45557;-71
2022/09/09 01:28:13;;;;;;;;;0.25;0.25;;;;;20.66;71.76;156271.22;5043009;28;45517;-71
2022/09/09 01:30:41;;;;;;;;;1.00;1.00;;;;;20.82;71.56;156311.00;5047883;28;45507;-71
2022/09/09 01:33:14;;;;;;;;;1.00;1.00;;;;;20.74;71.27;156289.75;5039002;28;46227;-70
2022/09/09 01:35:46;;;;;;;;;0.00;0.00;;;;;20.81;71.71;156309.69;5034783;28;45972;-71
2022/09/09 01:38:12;;;;;;;;;2.00;1.00;;;;;20.77;71.60;156299.06;5035550;28;45333;-71
2022/09/09 01:40:38;;;;;;;;;1.25;0.25;;;;;20.77;72.18;156299.06;5040842;28;45342;-70
2022/09/09 01:43:04;;;;;;;;;1.00;1.00;;;;;20.77;72.01;156297.75;5050359;28;46043;-70
2022/09/09 01:45:30;;;;;;;;;4.00;1.00;;;;;20.80;71.72;156307.00;5041924;28;45422;-70
2022/09/09 01:47:57;;;;;;;;;0.00;0.00;;;;;20.94;71.08;156342.81;5019573;28;45768;-71
2022/09/09 01:50:22;;;;;;;;;2.25;0.00;;;;;20.94;71.02;156341.50;5039366;28;45578;-70
2022/09/09 01:52:52;;;;;;;;;1.00;0.00;;;;;20.94;71.47;156341.50;5017832;28;46591;-70
2022/09/09 01:56:02;;;;;;;;;2.00;1.25;;;;;20.80;70.58;156307.00;5034944;28;45401;-70
2022/09/09 01:58:46;;;;;;;;;1.00;1.00;;;;;21.07;70.97;156375.91;4989303;27;45507;-70
2022/09/09 02:01:26;;;;;;;;;1.00;0.75;;;;;21.10;70.15;156383.91;4994989;27;45380;-70
2022/09/09 02:03:55;;;;;;;;;1.25;1.00;;;;;21.00;70.07;156358.72;4994376;28;46018;-70
2022/09/09 02:06:39;;;;;;;;;1.00;1.00;;;;;20.97;70.43;156349.44;4994520;27;45495;-70
2022/09/09 02:09:07;;;;;;;;;1.00;1.00;;;;;20.84;70.84;156316.31;4976988;28;45426;-70
2022/09/09 02:11:34;;;;;;;;;1.00;1.00;;;;;21.09;70.76;156381.22;4998489;27;45416;-70
2022/09/09 02:14:14;;;;;;;;;0.00;0.00;;;;;20.83;70.72;156313.63;4994422;27;46979;-70
2022/09/09 02:16:47;;;;;;;;;0.75;0.00;;;;;20.98;70.56;156353.41;4994635;27;45491;-70
2022/09/09 02:19:31;;;;;;;;;2.50;1.00;;;;;20.94;70.68;156342.81;5005314;27;45541;-70
2022/09/09 02:22:00;;;;;;;;;2.33;0.00;;;;;20.95;70.38;156344.13;4994302;27;45493;-70
2022/09/09 02:24:27;;;;;;;;;1.00;1.00;;;;;20.89;70.77;156328.25;4993518;28;45376;-70
2022/09/09 02:26:57;;;;;;;;;1.00;1.00;;;;;20.89;70.94;156329.56;4980080;27;45468;-70
2022/09/09 02:29:34;;;;;;;;;0.00;0.00;;;;;20.83;70.94;156314.94;4994586;27;45355;-71
2022/09/09 02:32:05;;;;;;;;;4.00;1.00;;;;;20.79;70.69;156303.00;4994656;27;45379;-70
2022/09/09 02:34:36;;;;;;;;;1.50;0.50;;;;;20.86;71.08;156321.56;4973388;28;45942;-70
2022/09/09 02:37:03;;;;;;;;;1.33;0.00;;;;;20.82;70.79;156312.31;4991395;27;45495;-70
2022/09/09 02:39:29;;;;;;;;;4.00;1.00;;;;;20.81;71.33;156308.31;4994727;27;45552;-71
2022/09/09 02:41:54;;;;;;;;;1.00;1.00;;;;;20.84;71.05;156317.63;4995082;27;45393;-70
2022/09/09 02:44:20;;;;;;;;;0.67;0.00;;;;;20.83;71.13;156313.63;4997914;27;45310;-69
2022/09/09 02:46:57;;;;;;;;;2.33;0.33;;;;;20.87;71.17;156324.25;4973526;27;45368;-70
2022/09/09 02:49:33;;;;;;;;;1.67;1.00;;;;;20.81;71.12;156309.69;4976757;28;45787;-70
2022/09/09 02:52:07;;;;;;;;;1.33;1.00;;;;;20.87;70.97;156325.56;5051343;27;45341;-70
2022/09/09 02:54:37;;;;;;;;;1.00;1.00;;;;;20.89;71.00;156329.56;4982472;28;46561;-70
2022/09/09 02:57:25;;;;;;;;;4.67;3.00;;;;;20.92;70.86;156337.50;4973492;27;45443;-70
2022/09/09 02:59:52;;;;;;;;;1.00;1.00;;;;;20.83;70.76;156313.63;4994274;27;45328;-70
2022/09/09 03:02:18;;;;;;;;;3.00;2.00;;;;;20.93;70.60;156338.81;4997274;27;45388;-71
2022/09/09 03:04:44;;;;;;;;;2.00;2.00;;;;;20.92;70.69;156337.50;4993713;27;46037;-70
2022/09/09 03:07:10;;;;;;;;;0.33;0.33;;;;;20.90;70.65;156332.19;4994057;28;46046;-70
2022/09/09 03:09:35;;;;;;;;;3.67;1.67;;;;;20.83;70.84;156314.94;4994069;27;45330;-70
2022/09/09 03:12:01;;;;;;;;;1.00;1.00;;;;;20.92;70.51;156337.50;4994168;27;45760;-70
2022/09/09 03:14:26;;;;;;;;;0.33;0.33;;;;;20.71;70.50;156283.13;4993578;27;46508;-70
2022/09/09 03:16:52;;;;;;;;;1.75;1.00;;;;;20.79;71.04;156303.00;4984524;27;45598;-70
2022/09/09 03:19:18;;;;;;;;;1.00;1.00;;;;;20.83;70.83;156314.94;4974893;27;45533;-70
2022/09/09 03:21:45;;;;;;;;;5.00;1.33;;;;;20.77;71.34;156299.06;4994169;27;45464;-70
2022/09/09 03:24:10;;;;;;;;;2.00;1.00;;;;;20.86;70.65;156322.94;4994632;27;46403;-70
2022/09/09 03:26:37;;;;;;;;;2.00;1.00;;;;;20.84;70.26;156316.31;4992832;27;45371;-70
2022/09/09 03:29:06;;;;;;;;;2.00;0.33;;;;;20.98;70.46;156353.41;4972870;28;45441;-70
2022/09/09 03:31:32;;;;;;;;;1.33;1.00;;;;;20.94;70.44;156341.50;4970297;28;45441;-70
2022/09/09 03:33:58;;;;;;;;;0.00;0.00;;;;;20.87;70.38;156324.25;4982809;28;45440;-70
2022/09/09 03:36:23;;;;;;;;;2.00;1.00;;;;;20.85;69.93;156320.25;4996821;27;45449;-70
2022/09/09 03:38:49;;;;;;;;;3.00;1.00;;;;;20.99;70.00;156356.06;4993654;27;45323;-70
2022/09/09 03:41:15;;;;;;;;;3.00;1.00;;;;;20.92;69.82;156337.50;4994082;27;45425;-71
2022/09/09 03:43:41;;;;;;;;;1.25;0.75;;;;;20.81;70.25;156308.31;4993342;27;46943;-70
2022/09/09 03:46:07;;;;;;;;;6.67;2.00;;;;;20.79;70.16;156303.00;4993632;28;45325;-70
2022/09/09 03:48:32;;;;;;;;;2.33;1.33;;;;;20.67;70.05;156272.53;4992936;27;45301;-69
2022/09/09 03:51:00;;;;;;;;;1.33;1.33;;;;;20.75;70.37;156292.44;5013414;27;45277;-70
2022/09/09 03:53:25;;;;;;;;;4.00;1.00;;;;;20.79;70.34;156303.00;5019575;27;46343;-69
2022/09/09 03:55:54;;;;;;;;;1.00;1.00;;;;;20.73;70.23;156287.13;4993198;28;45377;-70
2022/09/09 03:58:21;;;;;;;;;2.00;2.00;;;;;20.59;70.80;156252.66;4993329;27;45482;-70
2022/09/09 04:00:54;;;;;;;;;3.33;2.00;;;;;20.65;70.67;156268.59;4993532;27;45453;-70
2022/09/09 04:03:20;;;;;;;;;1.00;1.00;;;;;20.58;70.42;156248.66;4992750;28;45890;-70
2022/09/09 04:05:49;;;;;;;;;1.00;1.00;;;;;20.61;70.59;156256.66;4972188;28;45320;-70
2022/09/09 04:08:14;;;;;;;;;1.00;1.00;;;;;20.63;71.01;156263.28;4984710;27;45335;-70
2022/09/09 04:10:39;;;;;;;;;1.00;1.00;;;;;20.54;70.73;156239.34;4979022;27;45418;-70
2022/09/09 04:13:05;;;;;;;;;3.33;1.00;;;;;20.69;70.85;156277.81;4992793;28;46509;-70
2022/09/09 04:15:31;;;;;;;;;0.33;0.33;;;;;20.70;70.47;156280.50;4994737;27;45375;-70
2022/09/09 04:17:56;;;;;;;;;1.67;1.67;;;;;20.67;70.48;156272.53;4996154;27;45424;-70
2022/09/09 04:20:22;;;;;;;;;2.00;2.00;;;;;20.69;70.23;156276.50;4996322;27;45378;-70
2022/09/09 04:22:47;;;;;;;;;3.00;1.00;;;;;20.66;70.67;156271.22;4995841;27;46089;-70
2022/09/09 04:25:13;;;;;;;;;1.00;1.00;;;;;20.69;70.78;156276.50;4996086;27;45484;-70
2022/09/09 04:27:39;;;;;;;;;3.33;1.00;;;;;20.71;70.39;156281.81;4994868;28;45590;-70
2022/09/09 04:30:05;;;;;;;;;1.00;1.00;;;;;20.67;70.33;156272.53;4996026;27;45440;-70
2022/09/09 04:32:32;;;;;;;;;1.00;1.00;;;;;20.65;70.37;156268.59;4995417;27;46362;-70
2022/09/09 04:34:58;;;;;;;;;2.00;2.00;;;;;20.64;70.81;156264.59;4995854;27;45305;-70
2022/09/09 04:37:24;;;;;;;;;1.00;1.00;;;;;20.58;70.81;156250.03;4995993;27;45353;-69
2022/09/09 04:39:50;;;;;;;;;1.00;1.00;;;;;20.60;70.52;156253.97;4978308;27;45517;-70
2022/09/09 04:42:17;;;;;;;;;4.00;2.33;;;;;20.64;71.02;156264.59;4974503;28;47083;-70
2022/09/09 04:44:43;;;;;;;;;1.67;1.00;;;;;20.58;70.63;156250.03;4996882;27;45382;-71
2022/09/09 04:47:09;;;;;;;;;2.00;2.00;;;;;20.40;71.47;156203.56;4995311;27;45318;-70
2022/09/09 04:49:35;;;;;;;;;1.75;1.75;;;;;20.51;70.94;156230.06;4995993;27;45409;-70
2022/09/09 04:52:01;;;;;;;;;0.75;0.00;;;;;20.51;70.99;156230.06;5040114;27;46202;-70
2022/09/09 04:54:28;;;;;;;;;2.33;1.00;;;;;20.41;71.10;156206.19;4974125;28;45267;-70
2022/09/09 04:56:54;;;;;;;;;1.00;1.00;;;;;20.54;70.51;156238.03;4991675;27;45459;-70
2022/09/09 04:59:20;;;;;;;;;1.67;1.67;;;;;20.48;70.60;156223.44;4996006;27;45610;-70
2022/09/09 05:01:45;;;;;;;;;2.33;2.00;;;;;20.54;70.58;156238.03;4998196;27;46298;-70
2022/09/09 05:04:11;;;;;;;;;3.00;1.00;;;;;20.51;71.10;156230.06;5005518;27;45373;-71
2022/09/09 05:06:37;;;;;;;;;2.33;1.00;;;;;20.53;70.40;156236.69;4978317;28;45360;-69
2022/09/09 05:09:02;;;;;;;;;2.33;1.00;;;;;20.49;70.96;156226.13;4995818;27;45688;-69
2022/09/09 05:11:30;;;;;;;;;1.00;1.00;;;;;20.54;70.61;156239.34;4995238;27;46884;-70
2022/09/09 05:13:56;;;;;;;;;2.33;1.00;;;;;20.59;70.63;156251.34;4995080;27;45407;-69
2022/09/09 05:16:22;;;;;;;;;2.00;1.00;;;;;20.54;70.97;156239.34;4995208;27;45354;-69
2022/09/09 05:18:49;;;;;;;;;1.00;1.00;;;;;20.56;70.51;156243.41;4998896;27;45460;-69
2022/09/09 05:21:16;;;;;;;;;3.00;1.00;;;;;20.62;70.54;156260.59;4995396;27;47203;-69
2022/09/09 05:23:42;;;;;;;;;3.00;2.00;;;;;20.62;70.79;156259.28;4995185;27;45438;-69
2022/09/09 05:26:13;;;;;;;;;4.00;2.00;;;;;20.61;71.09;156257.97;4994195;27;45475;-70
2022/09/09 05:28:38;;;;;;;;;2.00;2.00;;;;;20.60;70.88;156253.97;4967621;28;45337;-69
2022/09/09 05:31:07;;;;;;;;;3.00;1.67;;;;;20.58;70.21;156250.03;4992425;27;46470;-69
2022/09/09 05:33:34;;;;;;;;;1.00;1.00;;;;;20.59;70.60;156252.66;4994848;27;45442;-69
2022/09/09 05:36:03;;;;;;;;;1.00;1.00;;;;;20.62;70.47;156259.28;4991492;27;45368;-69
2022/09/09 05:38:30;;;;;;;;;2.33;1.00;;;;;20.69;70.35;156276.50;5012495;28;45401;-69
2022/09/09 05:40:56;;;;;;;;;2.00;1.00;;;;;20.67;70.17;156272.53;4989299;27;47436;-69
2022/09/09 05:43:23;;;;;;;;;1.33;1.33;;;;;20.45;70.20;156215.50;5003322;27;45438;-69
2022/09/09 05:46:00;;;;;;;;;1.00;1.00;;;;;20.60;70.15;156253.97;4979421;27;45364;-69
2022/09/09 05:48:28;;;;;;;;;1.00;1.00;;;;;20.51;70.90;156231.41;4984051;27;45636;-69
2022/09/09 05:50:54;;;;;;;;;2.00;1.00;;;;;20.52;70.96;156232.72;4965523;27;45610;-71
2022/09/09 05:53:20;;;;;;;;;1.67;1.00;;;;;20.41;71.41;156206.19;4987391;27;45534;-71
2022/09/09 05:55:45;;;;;;;;;3.00;3.00;;;;;20.53;71.46;156235.38;4991726;27;45657;-71
2022/09/09 05:58:11;;;;;;;;;2.33;2.33;;;;;20.60;71.05;156255.34;5013941;27;45413;-70
2022/09/09 06:00:37;;;;;;;;;4.33;0.33;;;;;20.62;71.41;156259.28;5024009;27;45426;-69
2022/09/09 06:03:03;;;;;;;;;3.00;1.00;;;;;20.60;71.00;156255.34;4990403;28;45323;-70
2022/09/09 06:05:29;;;;;;;;;3.33;3.33;;;;;20.53;71.14;156236.69;4989269;27;45532;-71
2022/09/09 06:07:54;;;;;;;;;2.00;2.00;;;;;20.40;71.27;156203.56;5022245;27;45470;-70
2022/09/09 06:10:20;;;;;;;;;1.00;1.00;;;;;20.57;71.83;156246.03;4997551;27;45725;-73
2022/09/09 06:12:45;;;;;;;;;1.33;1.00;;;;;20.56;72.12;156244.72;4980691;27;45385;-71
2022/09/09 06:15:11;;;;;;;;;2.33;2.00;;;;;20.60;71.58;156253.97;5000926;27;45377;-70
2022/09/09 06:17:36;;;;;;;;;2.67;2.00;;;;;20.68;71.07;156275.19;4990908;28;45431;-71
2022/09/09 06:20:02;;;;;;;;;3.00;3.00;;;;;20.75;71.37;156293.75;4981479;27;46488;-71
2022/09/09 06:22:27;;;;;;;;;1.00;1.00;;;;;20.70;71.22;156279.16;4982913;27;45346;-71
2022/09/09 06:24:53;;;;;;;;;1.00;1.00;;;;;20.72;71.64;156285.81;4992049;27;45272;-72
2022/09/09 06:27:18;;;;;;;;;1.50;1.00;;;;;20.72;70.85;156285.81;5023818;27;45771;-72
2022/09/09 06:29:44;;;;;;;;;1.00;1.00;;;;;20.72;71.15;156285.81;5005703;27;45481;-71
2022/09/09 06:32:09;;;;;;;;;2.75;1.00;;;;;20.76;71.10;156295.06;5036455;27;57975;-70
2022/09/09 06:34:36;;;;;;;;;1.00;1.00;;;;;20.75;71.24;156292.44;4967536;28;45373;-73
2022/09/09 06:37:01;;;;;;;;;1.00;1.00;;;;;20.76;70.91;156296.38;4996633;28;45619;-72
2022/09/09 06:39:27;;;;;;;;;0.50;0.50;;;;;20.72;71.45;156285.81;4999008;27;46222;-73
2022/09/09 06:41:53;;;;;;;;;1.00;1.00;;;;;20.86;70.76;156322.94;4989081;27;45496;-74
2022/09/09 06:44:18;;;;;;;;;1.00;1.00;;;;;20.94;70.39;156342.81;4982747;27;45365;-75
2022/09/09 06:46:47;;;;;;;;;2.50;1.00;;;;;20.82;70.05;156312.31;5008380;27;45425;-73
2022/09/09 06:49:13;;;;;;;;;1.00;1.00;;;;;20.84;70.42;156317.63;5002342;27;46975;-73
2022/09/09 06:51:42;;;;;;;;;1.25;1.25;;;;;21.05;70.26;156371.97;4981951;28;45520;-74
2022/09/09 06:54:08;;;;;;;;;1.00;1.00;;;;;21.09;70.18;156381.22;4977872;28;46404;-75
2022/09/09 06:56:36;;;;;;;;;1.00;1.00;;;;;21.10;69.73;156382.59;4992177;28;45733;-74
2022/09/09 06:59:04;;;;;;;;;3.25;2.25;;;;;21.12;69.80;156387.84;4993953;28;46035;-75
2022/09/09 07:01:32;;;;;;;;;0.75;0.75;;;;;21.20;69.85;156410.41;4989547;27;46572;-75
2022/09/09 07:03:59;;;;;;;;;1.50;1.50;;;;;21.14;70.26;156394.53;4979792;27;45834;-76
2022/09/09 07:06:27;;;;;;;;;2.75;2.00;;;;;21.27;70.24;156427.66;4990002;27;45488;-67
2022/09/09 07:08:57;;;;;;;;;1.00;1.00;;;;;21.23;69.37;156417.03;4994754;27;47465;-67
2022/09/09 07:11:26;;;;;;;;;0.25;0.25;;;;;21.17;69.29;156401.16;4990045;27;45497;-67
2022/09/09 07:13:52;;;;;;;;;2.00;0.75;;;;;21.25;69.09;156423.66;4968982;28;45473;-67
2022/09/09 07:16:20;;;;;;;;;3.33;1.00;;;;;21.24;69.32;156419.72;4989954;28;45527;-67
2022/09/09 07:18:46;;;;;;;;;3.00;1.33;;;;;21.21;69.85;156413.09;4979805;27;46360;-67
2022/09/09 07:21:13;;;;;;;;;4.00;1.00;;;;;21.28;69.37;156430.28;4997639;28;45398;-67
2022/09/09 07:23:39;;;;;;;;;1.00;1.00;;;;;21.30;69.01;156435.59;4987958;28;45634;-67
2022/09/09 07:26:13;;;;;;;;;3.00;0.67;;;;;21.24;69.33;156421.03;4976165;28;45857;-67
2022/09/09 07:28:40;;;;;;;;;1.25;1.25;;;;;21.33;69.28;156442.22;4998587;27;47327;-69
2022/09/09 07:31:06;;;;;;;;;1.00;1.00;;;;;21.37;69.32;156452.84;4990532;28;45444;-71
2022/09/09 07:33:34;;;;;;;;;4.00;1.67;;;;;21.47;69.12;156480.78;4989234;27;45320;-70
2022/09/09 07:36:09;;;;;;;;;0.00;0.00;;;;;21.61;69.44;156516.59;4977623;28;45526;-72
2022/09/09 07:38:39;;;;;;;;;1.00;1.00;;;;;21.54;69.11;156498.00;4988630;28;45373;-71
2022/09/09 07:41:08;;;;;;;;;1.00;1.00;;;;;21.59;69.04;156511.28;4988317;27;45433;-69
2022/09/09 07:43:33;;;;;;;;;0.75;0.75;;;;;21.64;68.39;156523.22;4983700;27;45451;-70
2022/09/09 07:46:01;;;;;;;;;1.67;1.00;;;;;21.71;67.63;156541.78;4975913;27;45318;-69
2022/09/09 07:48:27;;;;;;;;;2.00;1.00;;;;;21.73;67.84;156547.09;4989091;27;46199;-68
2022/09/09 07:50:52;;;;;;;;;0.00;0.00;;;;;21.80;68.57;156565.66;4989498;28;45503;-68
2022/09/09 07:53:19;;;;;;;;;4.00;1.00;;;;;21.82;68.38;156569.59;4992120;27;45469;-68
2022/09/09 07:55:45;;;;;;;;;1.00;1.00;;;;;21.66;67.92;156528.53;4980249;27;45546;-67
2022/09/09 07:58:10;;;;;;;;;2.33;1.00;;;;;21.65;68.45;156525.84;4994437;27;47230;-67
2022/09/09 08:00:36;;;;;;;;;3.00;1.00;;;;;21.66;68.32;156529.84;4996656;27;45902;-67
2022/09/09 08:03:01;;;;;;;;;1.00;1.00;;;;;21.74;67.43;156549.72;4998491;27;45416;-67
2022/09/09 08:05:27;;;;;;;;;1.00;1.00;;;;;21.68;67.65;156533.78;4990374;27;45582;-67
2022/09/09 08:07:52;;;;;;;;;2.67;2.00;;;;;21.87;67.56;156584.22;4997507;28;46002;-67
2022/09/09 08:10:18;;;;;;;;;1.50;0.25;;;;;21.85;66.54;156577.59;4988474;27;45836;-67
2022/09/09 08:12:43;;;;;;;;;2.50;1.00;;;;;21.92;67.15;156596.16;5001063;27;45765;-67
2022/09/09 08:15:09;;;;;;;;;1.00;1.00;;;;;21.90;66.56;156590.84;4995991;27;45302;-67
2022/09/09 08:17:34;;;;;;;;;4.00;1.00;;;;;21.96;66.87;156606.78;4988898;27;46154;-67
2022/09/09 08:20:04;;;;;;;;;2.25;1.00;;;;;22.04;66.48;156628.00;5002320;28;45483;-67
2022/09/09 08:22:30;;;;;;;;;1.33;1.33;;;;;22.12;66.65;156647.88;4979865;28;45443;-67
2022/09/09 08:24:56;;;;;;;;;2.25;1.25;;;;;22.17;66.45;156661.16;4995994;27;45460;-67
2022/09/09 08:27:22;;;;;;;;;1.75;1.75;;;;;22.32;66.61;156699.69;4996052;27;46025;-67
2022/09/09 08:29:47;;;;;;;;;2.00;0.00;;;;;22.49;65.53;156744.81;5011985;27;45747;-67
2022/09/09 08:32:13;;;;;;;;;1.00;1.00;;;;;22.59;65.11;156770.00;5003476;27;45388;-67
2022/09/09 08:34:38;;;;;;;;;4.67;2.00;;;;;22.16;67.22;156657.19;5010378;27;45355;-67
2022/09/09 08:37:03;;;;;;;;;1.00;0.00;;;;;21.86;66.88;156580.22;4995715;27;46278;-68
2022/09/09 08:39:29;;;;;;;;;1.00;1.00;;;;;21.90;66.66;156590.84;5001714;27;47544;-67
2022/09/09 08:42:40;;;;;;;;;0.00;0.00;;;;;22.07;66.56;156634.63;5001470;27;45368;-67
2022/09/09 08:45:26;;;;;;;;;2.00;0.75;;;;;22.65;65.69;156785.97;4916508;28;45548;-68
2022/09/09 08:47:57;;;;;;;;;0.50;0.00;;;;;22.09;66.42;156639.94;4904666;28;48377;-68
2022/09/09 08:50:32;;;;;;;;;3.33;1.67;;;;;22.76;65.12;156815.16;4915106;28;45729;-68
2022/09/09 08:53:01;;;;;;;;;0.00;0.00;;;;;22.85;64.12;156836.38;4909304;28;45507;-68
2022/09/09 08:55:29;;;;;;;;;0.00;0.00;;;;;22.88;64.35;156845.69;4922565;28;45375;-68
2022/09/09 08:58:00;;;;;;;;;0.75;0.75;;;;;22.90;64.18;156849.69;4916279;28;45455;-68
2022/09/09 09:00:40;;;;;;;;;1.00;1.00;;;;;23.07;63.97;156894.88;4926805;28;45486;-68
2022/09/09 09:03:21;;;;;;;;;2.75;1.00;;;;;23.18;62.49;156922.75;4922498;28;45557;-69
2022/09/09 09:06:00;;;;;;;;;1.25;1.00;;;;;22.83;63.70;156832.44;4922690;28;45932;-68
2022/09/09 09:08:43;;;;;;;;;0.75;0.75;;;;;23.14;62.97;156913.44;4914973;28;45471;-68
2022/09/09 09:11:09;;;;;;;;;0.00;0.00;;;;;23.22;62.71;156932.03;4916073;28;45508;-68
2022/09/09 09:13:40;;;;;;;;;1.25;1.00;;;;;23.34;62.31;156965.25;4921672;28;45928;-68
2022/09/09 09:16:33;;;;;;;;;1.00;1.00;;;;;23.42;62.05;156985.16;4919903;28;46831;-68
2022/09/09 09:19:00;;;;;;;;;2.00;1.00;;;;;23.39;61.90;156977.22;4916371;28;46310;-69
2022/09/09 09:21:34;;;;;;;;;1.50;1.50;;;;;23.35;62.47;156966.56;4986437;27;45495;-68
2022/09/09 09:24:01;;;;;;;;;1.00;1.00;;;;;23.51;62.13;157007.75;5008763;27;45427;-68
2022/09/09 09:26:32;;;;;;;;;0.25;0.25;;;;;23.49;61.65;157003.75;5000695;27;45670;-68
2022/09/09 09:29:00;;;;;;;;;0.50;0.50;;;;;23.49;61.76;157003.75;5005165;27;46221;-68
2022/09/09 09:31:29;;;;;;;;;1.00;1.00;;;;;23.42;61.42;156983.84;4983132;27;45408;-68
2022/09/09 09:33:55;;;;;;;;;2.00;1.00;;;;;23.53;61.31;157014.38;4996470;27;45288;-69
2022/09/09 09:36:33;;;;;;;;;1.33;1.33;;;;;23.56;61.26;157022.34;5051141;27;45758;-69
2022/09/09 09:39:02;;;;;;;;;0.25;0.25;;;;;23.53;61.19;157013.00;5000371;27;45399;-68
2022/09/09 09:41:35;;;;;;;;;1.25;1.25;;;;;23.47;61.23;156998.44;5001598;27;45459;-69
2022/09/09 09:44:01;;;;;;;;;4.00;1.00;;;;;23.35;61.42;156966.56;5008039;27;45507;-69
2022/09/09 09:46:28;;;;;;;;;3.75;1.00;;;;;23.47;61.16;156998.44;4995847;27;45582;-69
2022/09/09 09:49:01;;;;;;;;;2.00;2.00;;;;;23.52;62.05;157011.69;4982963;28;45506;-69
2022/09/09 09:51:29;;;;;;;;;1.67;1.67;;;;;23.61;61.84;157034.28;4993142;28;45586;-69
2022/09/09 09:54:09;;;;;;;;;0.67;0.67;;;;;23.62;61.40;157036.91;4990861;27;45350;-69
2022/09/09 09:56:35;;;;;;;;;1.25;0.25;;;;;23.73;61.44;157064.84;4977601;28;45565;-69
2022/09/09 09:59:00;;;;;;;;;0.00;0.00;;;;;23.77;60.52;157076.84;4983683;27;45301;-68
2022/09/09 10:01:34;;;;;;;;;1.00;1.00;;;;;23.76;60.21;157072.84;4983535;28;45357;-69
2022/09/09 10:04:19;;;;;;;;;0.33;0.33;;;;;23.71;61.77;157060.84;4969052;28;45527;-68
2022/09/09 10:06:45;;;;;;;;;1.00;1.00;;;;;23.64;62.48;157042.25;4992003;28;45929;-69
2022/09/09 10:09:32;;;;;;;;;1.00;1.00;;;;;23.56;62.00;157021.03;4995009;27;45603;-69
2022/09/09 10:12:22;;;;;;;;;2.00;1.00;;;;;23.54;60.73;157017.00;5006995;27;45395;-69
2022/09/09 10:15:06;;;;;;;;;0.75;0.75;;;;;23.47;61.28;156997.09;5005130;27;45457;-68
2022/09/09 10:18:02;;;;;;;;;1.00;1.00;;;;;23.49;61.46;157002.44;5009993;27;45779;-69
2022/09/09 10:20:33;;;;;;;;;0.50;0.50;;;;;23.77;60.99;157076.84;4991580;27;45565;-69
2022/09/09 10:23:11;;;;;;;;;0.25;0.25;;;;;24.10;60.31;157160.53;4994744;28;45934;-69
2022/09/09 10:25:45;;;;;;;;;0.75;0.75;;;;;24.44;59.35;157250.91;4998558;27;45530;-69
2022/09/09 10:28:32;;;;;;;;;1.00;1.00;;;;;24.68;58.77;157310.69;5008430;28;45340;-69
2022/09/09 10:31:06;;;;;;;;;1.50;0.00;;;;;24.58;58.38;157286.81;5015326;27;46276;-68
2022/09/09 10:33:42;;;;;;;;;0.25;0.25;;;;;24.33;57.78;157221.66;5004661;27;45489;-68
2022/09/09 10:36:10;;;;;;;;;1.50;1.00;;;;;24.26;58.53;157201.75;4989399;28;45536;-69
2022/09/09 10:38:43;;;;;;;;;0.50;0.50;;;;;24.20;57.99;157187.09;5000794;27;45465;-69
2022/09/09 10:41:27;;;;;;;;;0.00;0.00;;;;;24.13;58.42;157168.50;5012201;27;47294;-68
2022/09/09 10:44:32;;;;;;;;;0.00;0.00;;;;;23.94;58.29;157119.34;5004437;27;45902;-69
2022/09/09 10:47:30;;;;;;;;;0.25;0.25;;;;;23.60;58.93;157032.97;4995523;27;45589;-68
2022/09/09 10:50:17;;;;;;;;;0.25;0.25;;;;;23.46;59.01;156995.78;4990289;27;45383;-69
2022/09/09 10:53:00;;;;;;;;;0.25;0.25;;;;;23.20;59.54;156926.72;4989084;27;46135;-68
2022/09/09 10:55:51;;;;;;;;;0.25;0.25;;;;;23.26;60.17;156943.97;5018335;27;45406;-69
2022/09/09 10:58:34;;;;;;;;;0.75;0.75;;;;;23.22;59.91;156932.03;5000810;27;45395;-68
2022/09/09 11:01:09;;;;;;;;;0.00;0.00;;;;;23.32;60.89;156958.56;4982201;27;45523;-68
2022/09/09 11:03:39;;;;;;;;;0.00;0.00;;;;;23.27;61.27;156945.31;4970822;27;47474;-68
2022/09/09 11:06:10;;;;;;;;;1.25;1.00;;;;;23.34;60.63;156963.88;5007703;27;45520;-71
2022/09/09 11:08:38;;;;;;;;;2.00;1.00;;;;;23.44;60.51;156989.16;4998585;27;45601;-72
2022/09/09 11:11:16;;;;;;;;;0.75;0.75;;;;;23.51;61.07;157009.06;4978164;28;45723;-71
2022/09/09 11:14:05;;;;;;;;;0.00;0.00;;;;;23.74;60.42;157067.53;4998807;27;45425;-73
2022/09/09 11:16:41;;;;;;;;;1.25;1.25;;;;;23.83;59.04;157090.13;4990191;27;45581;-73
2022/09/09 11:19:14;;;;;;;;;0.00;0.00;;;;;23.86;58.97;157099.44;5002021;28;45468;-73
2022/09/09 11:21:49;;;;;;;;;1.75;0.00;;;;;23.84;58.82;157092.81;4997508;27;45344;-73
2022/09/09 11:24:14;;;;;;;;;1.25;1.25;;;;;23.92;58.52;157115.34;4974086;27;46312;-75
2022/09/09 11:26:51;;;;;;;;;1.00;1.00;;;;;23.96;58.93;157124.66;5001082;27;45465;-73
2022/09/09 11:29:47;;;;;;;;;1.25;1.00;;;;;24.09;57.64;157157.84;5000138;27;45796;-74
2022/09/09 11:32:51;;;;;;;;;1.00;1.00;;;;;24.08;57.93;157155.22;5019884;27;45758;-73
2022/09/09 11:35:43;;;;;;;;;1.00;1.00;;;;;23.88;59.59;157104.75;5028764;27;47476;-74
2022/09/09 11:38:21;;;;;;;;;1.25;1.00;;;;;23.95;59.00;157123.34;5019821;27;45496;-75
2022/09/09 11:40:53;;;;;;;;;1.00;1.00;;;;;23.95;58.86;157123.34;5004405;27;45762;-75
2022/09/09 11:43:26;;;;;;;;;1.00;1.00;;;;;23.90;59.32;157108.72;5043743;27;45461;-73